Cupsaw Lake, New Jersey
Current Conditions -  °F | °C
As of 11:18 AM on Monday 24 Nov 2014 (Local Time) from KCDW Reporting Station
Overcast Overcast  
Wind Chill: 68°   Ceiling: 4200
Heat Index: 68°   Visibility: 10mi
Dew Point: 58°   Wind: 9mph
Humidity: 70%   Direction: 230°SW
Pressure: 29.63"   Gusts: 24mph
Location:  41.1036°N, 74.2801°W
Report Text: KCDW 241618Z 23008G21KT 10SM FEW025 SCT031 OVC042 20/14 A2963 RMK AO2 PK WND 21027/1607 T02000144
Loading
Personal Weather Stations






























Interactive Weather Map New forecast layout! Learn more

10-Day Weather Forecast

Advertisements
Track Severe Weather on mobile